createdAt,value
2023-04-12T00:00:11.473Z,7.45
2023-04-12T00:01:13.629Z,7.20
2023-04-12T00:02:15.871Z,7.05
2023-04-12T00:03:20.815Z,6.60
2023-04-12T00:04:28.720Z,6.97
2023-04-12T00:05:31.169Z,6.75
2023-04-12T00:06:33.476Z,6.70
2023-04-12T00:07:35.770Z,6.70
2023-04-12T00:08:38.783Z,6.20
2023-04-12T00:09:42.274Z,6.25
2023-04-12T00:10:44.387Z,6.25
2023-04-12T00:11:46.679Z,6.78
2023-04-12T00:12:49.479Z,6.85
2023-04-12T00:13:51.699Z,7.00
2023-04-12T00:14:53.767Z,6.38
2023-04-12T00:15:56.070Z,6.63
2023-04-12T00:16:58.184Z,6.97
2023-04-12T00:18:00.651Z,6.68
2023-04-12T00:19:03.665Z,6.35
2023-04-12T00:20:13.478Z,7.07
2023-04-12T00:21:19.427Z,6.82
2023-04-12T00:22:21.587Z,6.90
2023-04-12T00:23:23.671Z,7.15
2023-04-12T00:24:26.820Z,7.28
2023-04-12T00:25:30.493Z,7.50
2023-04-12T00:26:32.588Z,6.32
2023-04-12T00:27:34.969Z,6.78
2023-04-12T00:28:37.402Z,7.10
2023-04-12T00:29:39.508Z,7.68
2023-04-12T00:30:41.935Z,6.57
2023-04-12T00:31:44.078Z,7.07
2023-04-12T00:32:46.265Z,7.15
2023-04-12T00:33:48.548Z,6.85
2023-04-12T00:34:50.659Z,7.50
2023-04-12T00:35:52.740Z,7.25
2023-04-12T00:36:55.408Z,7.43
2023-04-12T00:37:57.495Z,8.10
2023-04-12T00:38:59.607Z,8.50
2023-04-12T00:40:01.839Z,8.80
2023-04-12T00:41:07.071Z,8.68
2023-04-12T00:42:09.161Z,7.97
2023-04-12T00:43:15.700Z,8.43
2023-04-12T00:44:18.353Z,8.57
2023-04-12T00:45:21.448Z,7.80
2023-04-12T00:46:23.596Z,7.95
2023-04-12T00:47:25.838Z,8.02
2023-04-12T00:48:28.942Z,8.20
2023-04-12T00:49:31.883Z,8.18
2023-04-12T00:50:35.096Z,8.60
2023-04-12T00:51:38.029Z,7.47
2023-04-12T00:52:40.578Z,7.75
2023-04-12T00:53:42.969Z,7.50
2023-04-12T00:54:45.305Z,7.30
2023-04-12T00:55:48.667Z,7.10
2023-04-12T00:56:52.943Z,7.35
2023-04-12T00:57:55.069Z,8.23
2023-04-12T00:58:57.621Z,8.23
2023-04-12T00:59:59.695Z,8.25
2023-04-12T01:01:02.904Z,7.75
2023-04-12T01:02:05.157Z,7.97
2023-04-12T01:03:08.776Z,7.68
2023-04-12T01:04:14.033Z,7.25
2023-04-12T01:05:22.108Z,7.88
2023-04-12T01:06:34.200Z,8.27
2023-04-12T01:07:51.660Z,8.15
2023-04-12T01:09:00.612Z,8.55
2023-04-12T01:10:12.036Z,8.15
2023-04-12T01:11:23.690Z,8.52
2023-04-12T01:12:38.605Z,7.88
2023-04-12T01:13:49.080Z,9.02
2023-04-12T01:14:58.334Z,8.35
2023-04-12T01:16:07.520Z,8.82
2023-04-12T01:17:14.412Z,9.00
2023-04-12T01:18:22.207Z,9.43
2023-04-12T01:19:46.958Z,8.98
2023-04-12T01:20:54.993Z,8.95
2023-04-12T01:22:08.997Z,9.07
2023-04-12T01:23:26.922Z,8.93
2023-04-12T01:24:41.678Z,9.00
2023-04-12T01:26:00.443Z,8.73
2023-04-12T01:27:03.736Z,9.13
2023-04-12T01:28:09.652Z,8.65
2023-04-12T01:29:14.389Z,9.13
2023-04-12T01:30:19.604Z,9.73
2023-04-12T01:32:36.835Z,8.23
2023-04-12T01:33:44.562Z,8.90
2023-04-12T01:34:47.016Z,8.50
2023-04-12T01:35:51.245Z,8.95
2023-04-12T01:36:53.936Z,8.75
2023-04-12T01:37:57.427Z,8.75
2023-04-12T01:39:00.858Z,9.45
2023-04-12T01:40:05.934Z,9.18
2023-04-12T01:41:08.442Z,9.70
2023-04-12T01:42:10.616Z,9.60
2023-04-12T01:43:16.204Z,9.27
2023-04-12T01:44:19.048Z,9.02
2023-04-12T01:45:21.290Z,8.68
2023-04-12T01:46:24.173Z,8.32
2023-04-12T01:47:27.198Z,8.57
2023-04-12T01:48:29.390Z,8.05
2023-04-12T01:49:47.455Z,8.48
2023-04-12T01:51:00.824Z,8.27
2023-04-12T01:52:09.700Z,8.43
2023-04-12T01:53:15.812Z,8.05
2023-04-12T01:54:23.273Z,8.02
2023-04-12T01:55:27.593Z,8.05
2023-04-12T01:56:33.640Z,7.85
2023-04-12T01:57:37.342Z,9.18
2023-04-12T01:58:44.034Z,8.07
2023-04-12T01:59:48.991Z,8.30
2023-04-12T02:00:52.167Z,8.45
2023-04-12T02:01:54.614Z,8.50
2023-04-12T02:02:57.819Z,9.55
2023-04-12T02:04:01.746Z,8.80
2023-04-12T02:05:08.074Z,8.20
2023-04-12T02:06:11.000Z,8.85
2023-04-12T02:07:14.596Z,8.02
2023-04-12T02:08:17.198Z,8.23
2023-04-12T02:09:19.339Z,9.30
2023-04-12T02:10:29.347Z,9.18
2023-04-12T02:11:31.582Z,9.27
2023-04-12T02:12:33.677Z,9.02
2023-04-12T02:13:35.766Z,8.40
2023-04-12T02:14:39.288Z,8.88
2023-04-12T02:15:41.374Z,9.00
2023-04-12T02:16:44.728Z,9.32
2023-04-12T02:17:47.162Z,8.82
2023-04-12T02:18:49.333Z,8.68
2023-04-12T02:19:51.603Z,8.98
2023-04-12T02:20:53.873Z,8.60
2023-04-12T02:21:56.005Z,8.80
2023-04-12T02:23:01.121Z,8.88
2023-04-12T02:24:03.210Z,8.55
2023-04-12T02:25:09.169Z,8.93
2023-04-12T02:26:11.393Z,9.25
2023-04-12T02:27:13.554Z,9.15
2023-04-12T02:28:15.739Z,9.18
2023-04-12T02:29:18.117Z,9.38
2023-04-12T02:30:21.779Z,10.27
2023-04-12T02:31:25.577Z,9.50
2023-04-12T02:32:27.751Z,9.32
2023-04-12T02:33:30.766Z,9.13
2023-04-12T02:34:36.607Z,8.90
2023-04-12T02:35:38.902Z,8.60
2023-04-12T02:36:41.001Z,8.80
2023-04-12T02:37:44.304Z,9.38
2023-04-12T02:38:50.876Z,8.80
2023-04-12T02:39:56.800Z,8.57
2023-04-12T02:40:58.938Z,8.95
2023-04-12T02:42:01.675Z,9.30
2023-04-12T02:43:03.745Z,9.05
2023-04-12T02:44:05.826Z,8.93
2023-04-12T02:45:08.707Z,8.63
2023-04-12T02:46:19.473Z,9.50
2023-04-12T02:47:21.955Z,9.68
2023-04-12T02:48:24.076Z,8.40
2023-04-12T02:49:26.154Z,8.90
2023-04-12T02:50:29.463Z,9.70
2023-04-12T02:51:31.603Z,8.80
2023-04-12T02:52:33.678Z,8.82
2023-04-12T02:53:35.852Z,9.15
2023-04-12T02:54:37.908Z,8.80
2023-04-12T02:55:40.487Z,9.15
2023-04-12T02:56:43.901Z,8.27
2023-04-12T02:57:46.278Z,8.60
2023-04-12T02:58:48.417Z,9.05
2023-04-12T02:59:53.137Z,9.15
2023-04-12T03:00:55.574Z,8.95
2023-04-12T03:01:59.113Z,9.70
2023-04-12T03:03:03.119Z,8.55
2023-04-12T03:04:05.576Z,9.55
2023-04-12T03:05:12.335Z,9.20
2023-04-12T03:06:14.421Z,9.80
2023-04-12T03:07:17.117Z,9.43
2023-04-12T03:08:19.249Z,9.00
2023-04-12T03:09:21.556Z,9.35
2023-04-12T03:10:23.947Z,9.63
2023-04-12T03:11:26.259Z,9.23
2023-04-12T03:12:28.902Z,8.70
2023-04-12T03:13:31.025Z,9.15
2023-04-12T03:14:33.176Z,8.65
2023-04-12T03:15:35.612Z,8.50
2023-04-12T03:16:37.736Z,8.93
2023-04-12T03:17:43.016Z,8.60
2023-04-12T03:18:45.155Z,8.75
2023-04-12T03:19:47.283Z,8.75
2023-04-12T03:20:49.604Z,8.75
2023-04-12T03:21:53.986Z,9.30
2023-04-12T03:22:56.065Z,8.98
2023-04-12T03:23:58.404Z,8.80
2023-04-12T03:25:01.546Z,8.45
2023-04-12T03:26:03.928Z,7.60
2023-04-12T03:27:06.979Z,9.20
2023-04-12T03:28:09.122Z,9.18
2023-04-12T03:29:11.406Z,9.43
2023-04-12T03:30:14.126Z,9.75
2023-04-12T03:31:20.527Z,9.68
2023-04-12T03:32:22.789Z,9.35
2023-04-12T03:33:26.873Z,9.98
2023-04-12T03:34:32.493Z,9.75
2023-04-12T03:35:34.839Z,9.20
2023-04-12T03:36:38.149Z,9.25
2023-04-12T03:37:42.333Z,9.13
2023-04-12T03:38:45.308Z,9.48
2023-04-12T03:39:48.434Z,9.35
2023-04-12T03:40:50.705Z,8.95
2023-04-12T03:41:53.368Z,9.70
2023-04-12T03:42:55.570Z,9.27
2023-04-12T03:43:57.817Z,9.63
2023-04-12T03:45:00.046Z,9.15
2023-04-12T03:46:02.607Z,9.77
2023-04-12T03:47:04.931Z,8.95
2023-04-12T03:48:07.078Z,8.85
2023-04-12T03:49:10.957Z,9.43
2023-04-12T03:50:13.101Z,9.32
2023-04-12T03:51:15.434Z,9.38
2023-04-12T03:52:17.574Z,9.20
2023-04-12T03:53:19.651Z,8.80
2023-04-12T03:54:22.057Z,9.30
2023-04-12T03:55:24.182Z,8.98
2023-04-12T03:56:26.366Z,9.60
2023-04-12T03:57:28.450Z,9.23
2023-04-12T03:58:31.148Z,8.75
2023-04-12T03:59:35.025Z,9.02
2023-04-12T04:00:37.127Z,8.23
2023-04-12T04:01:41.609Z,8.57
2023-04-12T04:02:43.808Z,9.00
2023-04-12T04:03:46.692Z,8.55
2023-04-12T04:04:51.757Z,8.50
2023-04-12T04:05:53.902Z,8.00
2023-04-12T04:06:56.764Z,8.35
2023-04-12T04:08:02.552Z,7.68
2023-04-12T04:09:05.075Z,9.43
2023-04-12T04:10:08.033Z,8.90
2023-04-12T04:11:10.473Z,8.57
2023-04-12T04:12:12.557Z,9.25
2023-04-12T04:13:14.653Z,9.85
2023-04-12T04:14:16.784Z,8.70
2023-04-12T04:15:18.987Z,9.45
2023-04-12T04:16:21.074Z,8.43
2023-04-12T04:17:23.280Z,8.88
2023-04-12T04:18:25.478Z,8.63
2023-04-12T04:19:27.580Z,8.18
2023-04-12T04:20:31.998Z,8.00
2023-04-12T04:21:34.194Z,8.30
2023-04-12T04:22:36.911Z,9.68
2023-04-12T04:23:39.169Z,9.10
2023-04-12T04:24:41.429Z,9.23
2023-04-12T04:25:43.635Z,9.00
2023-04-12T04:26:45.758Z,8.13
2023-04-12T04:27:49.545Z,8.40
2023-04-12T04:28:51.877Z,8.27
2023-04-12T04:29:54.012Z,8.77
2023-04-12T04:30:56.939Z,9.20
2023-04-12T04:31:59.125Z,9.43
2023-04-12T04:33:01.328Z,8.82
2023-04-12T04:34:05.454Z,8.48
2023-04-12T04:35:08.774Z,8.52
2023-04-12T04:36:15.820Z,8.43
2023-04-12T04:37:18.915Z,8.70
2023-04-12T04:38:25.587Z,8.48
2023-04-12T04:39:27.715Z,8.63
2023-04-12T04:40:29.831Z,9.10
2023-04-12T04:41:34.711Z,8.50
2023-04-12T04:42:37.226Z,9.00
2023-04-12T04:43:40.195Z,9.73
2023-04-12T04:44:42.782Z,8.88
2023-04-12T04:45:46.398Z,9.20
2023-04-12T04:46:49.049Z,9.20
2023-04-12T04:47:51.174Z,9.00
2023-04-12T04:48:55.212Z,8.02
2023-04-12T04:50:00.099Z,9.32
2023-04-12T04:51:02.689Z,9.40
2023-04-12T04:52:09.463Z,8.85
2023-04-12T04:53:11.660Z,8.25
2023-04-12T04:54:14.233Z,8.48
2023-04-12T04:55:17.656Z,8.60
2023-04-12T04:56:19.746Z,7.63
2023-04-12T04:57:21.957Z,8.10
2023-04-12T04:58:24.101Z,9.05
2023-04-12T04:59:26.199Z,8.43
2023-04-12T05:00:30.427Z,8.38
2023-04-12T05:01:36.086Z,8.82
2023-04-12T05:02:40.100Z,7.85
2023-04-12T05:03:42.463Z,8.20
2023-04-12T05:04:44.640Z,8.52
2023-04-12T05:05:48.838Z,8.52
2023-04-12T05:06:50.943Z,8.35
2023-04-12T05:07:55.569Z,7.93
2023-04-12T05:08:58.068Z,8.00
2023-04-12T05:10:00.328Z,8.40
2023-04-12T05:11:02.463Z,7.57
2023-04-12T05:12:04.844Z,8.70
2023-04-12T05:13:06.941Z,8.75
2023-04-12T05:14:12.013Z,8.73
2023-04-12T05:15:15.044Z,8.25
2023-04-12T05:16:17.670Z,7.63
2023-04-12T05:17:20.295Z,8.15
2023-04-12T05:18:22.796Z,7.35
2023-04-12T05:19:25.131Z,8.10
2023-04-12T05:20:27.326Z,7.80
2023-04-12T05:21:29.594Z,7.65
2023-04-12T05:22:32.632Z,8.38
2023-04-12T05:23:44.563Z,7.80
2023-04-12T05:25:04.010Z,8.93
2023-04-12T05:26:06.645Z,7.65
2023-04-12T05:27:09.026Z,8.35
2023-04-12T05:28:14.412Z,8.63
2023-04-12T05:29:16.976Z,7.40
2023-04-12T05:30:19.201Z,7.60
2023-04-12T05:31:22.113Z,7.95
2023-04-12T05:32:25.044Z,7.63
2023-04-12T05:33:27.326Z,7.32
2023-04-12T05:34:29.514Z,6.72
2023-04-12T05:35:31.797Z,7.72
2023-04-12T05:36:34.658Z,7.43
2023-04-12T05:37:36.925Z,7.40
2023-04-12T05:38:41.838Z,7.43
2023-04-12T05:39:44.108Z,7.88
2023-04-12T05:40:46.246Z,6.80
2023-04-12T05:41:48.858Z,7.18
2023-04-12T05:42:51.098Z,7.07
2023-04-12T05:43:53.281Z,7.93
2023-04-12T05:44:56.516Z,8.07
2023-04-12T05:45:59.387Z,8.07
2023-04-12T05:47:01.657Z,7.70
2023-04-12T05:48:04.156Z,7.70
2023-04-12T05:49:06.662Z,6.88
2023-04-12T05:50:09.658Z,7.82
2023-04-12T05:51:11.770Z,6.93
2023-04-12T05:52:13.947Z,6.90
2023-04-12T05:53:16.113Z,6.95
2023-04-12T05:54:21.366Z,6.85
2023-04-12T05:55:23.941Z,7.75
2023-04-12T05:56:26.492Z,6.90
2023-04-12T05:57:30.466Z,7.25
2023-04-12T05:58:33.519Z,7.20
2023-04-12T05:59:35.728Z,7.07
2023-04-12T06:00:39.075Z,6.55
2023-04-12T06:01:44.749Z,6.97
2023-04-12T06:02:47.776Z,7.05
2023-04-12T06:03:50.293Z,6.38
2023-04-12T06:04:53.923Z,6.35
2023-04-12T06:05:56.401Z,6.63
2023-04-12T06:06:58.609Z,6.60
2023-04-12T06:08:01.009Z,6.30
2023-04-12T06:09:04.895Z,7.78
2023-04-12T06:10:10.217Z,6.55
2023-04-12T06:11:12.744Z,6.60
2023-04-12T06:12:15.233Z,7.60
2023-04-12T06:13:17.475Z,7.18
2023-04-12T06:14:19.604Z,6.47
2023-04-12T06:15:22.122Z,6.88
2023-04-12T06:16:24.417Z,6.53
2023-04-12T06:17:26.792Z,6.55
2023-04-12T06:18:29.091Z,6.32
2023-04-12T06:19:31.437Z,6.45
2023-04-12T06:20:33.690Z,6.40
2023-04-12T06:21:35.789Z,6.88
2023-04-12T06:22:38.217Z,6.28
2023-04-12T06:23:40.460Z,6.55
2023-04-12T06:24:42.669Z,6.85
2023-04-12T06:25:47.242Z,7.43
2023-04-12T06:26:49.396Z,6.47
2023-04-12T06:27:51.620Z,6.35
2023-04-12T06:28:53.785Z,6.55
2023-04-12T06:29:55.952Z,6.35
2023-04-12T06:31:01.204Z,6.72
2023-04-12T06:32:04.841Z,6.70
2023-04-12T06:33:07.254Z,6.82
2023-04-12T06:34:09.439Z,7.10
2023-04-12T06:35:11.535Z,7.78
2023-04-12T06:36:16.117Z,7.00
2023-04-12T06:37:18.331Z,8.10
2023-04-12T06:38:20.590Z,7.90
2023-04-12T06:39:22.754Z,7.40
2023-04-12T06:40:27.380Z,7.30
2023-04-12T06:41:31.135Z,7.13
2023-04-12T06:42:33.258Z,6.70
2023-04-12T06:43:35.973Z,6.55
2023-04-12T06:44:38.081Z,6.10
2023-04-12T06:45:40.515Z,6.53
2023-04-12T06:46:42.954Z,6.88
2023-04-12T06:47:45.302Z,6.38
2023-04-12T06:48:47.440Z,6.22
2023-04-12T06:49:52.778Z,6.40
2023-04-12T06:50:56.085Z,6.90
2023-04-12T06:51:58.213Z,6.72
2023-04-12T06:53:00.623Z,7.18
2023-04-12T06:54:02.714Z,6.35
2023-04-12T06:55:05.860Z,6.68
2023-04-12T06:56:08.646Z,6.50
2023-04-12T06:57:12.246Z,6.85
2023-04-12T06:58:14.444Z,6.60
2023-04-12T06:59:16.596Z,6.57
2023-04-12T07:00:19.037Z,6.53
2023-04-12T07:01:21.177Z,7.15
2023-04-12T07:02:23.709Z,7.00
2023-04-12T07:03:28.428Z,6.53
2023-04-12T07:04:30.797Z,6.07
2023-04-12T07:05:32.902Z,6.63
2023-04-12T07:06:35.036Z,7.15
2023-04-12T07:07:37.108Z,6.93
2023-04-12T07:08:39.327Z,6.20
2023-04-12T07:09:41.456Z,6.80
2023-04-12T07:10:43.588Z,6.68
2023-04-12T07:11:45.818Z,5.90
2023-04-12T07:12:49.664Z,6.65
2023-04-12T07:13:51.992Z,6.78
2023-04-12T07:14:54.127Z,6.28
2023-04-12T07:15:56.358Z,6.40
2023-04-12T07:16:58.483Z,6.53
2023-04-12T07:18:00.704Z,5.47
2023-04-12T07:19:02.876Z,5.78
2023-04-12T07:20:08.038Z,6.03
2023-04-12T07:21:14.294Z,6.15
2023-04-12T07:22:16.496Z,5.65
2023-04-12T07:23:18.647Z,5.60
2023-04-12T07:24:20.742Z,6.00
2023-04-12T07:25:22.984Z,5.88
2023-04-12T07:26:25.162Z,5.90
2023-04-12T07:27:27.355Z,5.68
2023-04-12T07:28:31.147Z,6.00
2023-04-12T07:29:33.472Z,5.88
2023-04-12T07:30:39.335Z,5.65
2023-04-12T07:31:41.648Z,5.80
2023-04-12T07:32:44.009Z,5.38
2023-04-12T07:33:46.514Z,5.20
2023-04-12T07:34:48.750Z,5.85
2023-04-12T07:35:50.992Z,5.88
2023-04-12T07:36:53.413Z,5.20
2023-04-12T07:37:55.654Z,5.40
2023-04-12T07:38:59.007Z,5.75
2023-04-12T07:40:02.110Z,5.70
2023-04-12T07:41:04.974Z,5.32
2023-04-12T07:42:07.423Z,5.65
2023-04-12T07:43:09.935Z,5.53
2023-04-12T07:44:13.438Z,5.85
2023-04-12T07:45:16.125Z,5.72
2023-04-12T07:46:18.377Z,5.40
2023-04-12T07:47:20.583Z,5.50
2023-04-12T07:48:22.784Z,5.47
2023-04-12T07:49:24.947Z,5.10
2023-04-12T07:50:27.061Z,5.80
2023-04-12T07:51:29.261Z,5.10
2023-04-12T07:52:32.845Z,4.85
2023-04-12T07:53:34.983Z,5.47
2023-04-12T07:54:37.621Z,5.28
2023-04-12T07:55:39.688Z,5.75
2023-04-12T07:56:41.780Z,5.85
2023-04-12T07:57:44.187Z,6.07
2023-04-12T07:58:46.606Z,6.32
2023-04-12T07:59:50.392Z,6.32
2023-04-12T08:00:53.749Z,5.78
2023-04-12T08:01:56.053Z,6.22
2023-04-12T08:02:58.435Z,5.70
2023-04-12T08:04:01.304Z,5.80
2023-04-12T08:05:04.470Z,5.93
2023-04-12T08:06:07.885Z,6.38
2023-04-12T08:07:10.278Z,6.18
2023-04-12T08:08:12.589Z,5.88
2023-04-12T08:09:15.486Z,5.70
2023-04-12T08:10:19.681Z,6.07
2023-04-12T08:11:21.884Z,6.38
2023-04-12T08:12:24.060Z,6.22
2023-04-12T08:13:26.352Z,6.68
2023-04-12T08:14:30.584Z,7.15
2023-04-12T08:15:34.510Z,6.72
2023-04-12T08:16:36.813Z,6.25
2023-04-12T08:17:38.990Z,6.20
2023-04-12T08:18:41.363Z,6.00
2023-04-12T08:19:43.453Z,6.00
2023-04-12T08:20:45.692Z,5.82
2023-04-12T08:21:47.882Z,5.93
2023-04-12T08:22:50.352Z,6.18
2023-04-12T08:23:52.565Z,7.00
2023-04-12T08:24:54.691Z,6.10
2023-04-12T08:26:03.353Z,5.70
2023-04-12T08:27:05.886Z,6.45
2023-04-12T08:28:11.269Z,5.70
2023-04-12T08:29:13.478Z,5.85
2023-04-12T08:30:15.898Z,5.93
2023-04-12T08:31:19.469Z,5.78
2023-04-12T08:32:21.808Z,9.68
2023-04-12T08:33:24.021Z,7.10
2023-04-12T08:34:26.544Z,6.45
2023-04-12T08:35:28.731Z,6.10
2023-04-12T08:36:31.069Z,5.97
2023-04-12T08:37:33.254Z,5.95
2023-04-12T08:38:45.616Z,5.93
2023-04-12T08:39:48.733Z,5.15
2023-04-12T08:40:51.044Z,5.50
2023-04-12T08:41:56.603Z,5.40
2023-04-12T08:43:03.145Z,5.70
2023-04-12T08:44:05.743Z,6.07
2023-04-12T08:45:09.698Z,5.97
2023-04-12T08:46:15.582Z,5.90
2023-04-12T08:47:20.591Z,5.50
2023-04-12T08:48:23.751Z,5.70
2023-04-12T08:49:26.066Z,5.78
2023-04-12T08:50:28.756Z,5.82
2023-04-12T08:51:33.876Z,5.53
2023-04-12T08:52:37.282Z,6.00
2023-04-12T08:53:39.424Z,5.75
2023-04-12T08:54:41.779Z,6.13
2023-04-12T08:55:44.952Z,6.13
2023-04-12T08:56:47.996Z,5.47
2023-04-12T08:57:53.389Z,5.35
2023-04-12T08:58:55.770Z,5.20
2023-04-12T09:00:00.220Z,5.53
2023-04-12T09:01:02.752Z,5.70
2023-04-12T09:02:05.012Z,5.55
2023-04-12T09:03:10.756Z,5.53
2023-04-12T09:04:13.207Z,5.47
2023-04-12T09:05:15.583Z,6.10
2023-04-12T09:06:17.792Z,5.15
2023-04-12T09:07:19.990Z,5.30
2023-04-12T09:08:22.145Z,5.82
2023-04-12T09:09:42.047Z,6.05
2023-04-12T09:10:44.175Z,6.00
2023-04-12T09:11:46.294Z,6.25
2023-04-12T09:12:48.967Z,5.38
2023-04-12T09:13:52.793Z,5.82
2023-04-12T09:15:17.739Z,5.65
2023-04-12T09:16:34.937Z,5.82
2023-04-12T09:17:38.876Z,5.72
2023-04-12T09:18:50.158Z,6.13
2023-04-12T09:19:53.573Z,7.57
2023-04-12T09:21:08.169Z,7.78
2023-04-12T09:22:11.707Z,6.85
2023-04-12T09:23:24.778Z,7.85
2023-04-12T09:24:26.999Z,6.38
2023-04-12T09:25:40.455Z,6.38
2023-04-12T09:26:42.828Z,5.97
2023-04-12T09:27:48.930Z,5.68
2023-04-12T09:28:51.022Z,6.25
2023-04-12T09:30:07.337Z,6.20
2023-04-12T09:31:16.244Z,5.78
2023-04-12T09:32:26.557Z,6.03
2023-04-12T09:33:36.305Z,6.65
2023-04-12T09:34:54.537Z,6.65
2023-04-12T09:36:01.566Z,6.28
2023-04-12T09:37:16.023Z,5.97
2023-04-12T09:38:18.226Z,5.57
2023-04-12T09:39:20.489Z,6.45
2023-04-12T09:40:27.156Z,5.85
2023-04-12T09:41:31.834Z,6.10
2023-04-12T09:42:37.293Z,6.32
2023-04-12T09:43:39.706Z,6.28
2023-04-12T09:44:42.313Z,6.30
2023-04-12T09:45:44.446Z,6.13
2023-04-12T09:46:52.059Z,5.75
2023-04-12T09:47:56.810Z,5.78
2023-04-12T09:49:00.763Z,5.80
2023-04-12T09:50:07.351Z,5.53
2023-04-12T09:51:09.560Z,5.60
2023-04-12T09:52:13.891Z,5.68
2023-04-12T09:53:19.968Z,5.65
2023-04-12T09:54:22.716Z,6.03
2023-04-12T09:55:26.120Z,5.20
2023-04-12T09:56:31.037Z,5.93
2023-04-12T09:57:33.286Z,6.05
2023-04-12T09:58:38.586Z,5.85
2023-04-12T09:59:41.988Z,5.32
2023-04-12T10:00:45.507Z,5.43
2023-04-12T10:01:48.070Z,5.00
2023-04-12T10:02:52.788Z,5.20
2023-04-12T10:03:55.807Z,4.93
2023-04-12T10:04:59.075Z,5.70
2023-04-12T10:06:05.374Z,6.03
2023-04-12T10:07:07.732Z,5.35
2023-04-12T10:08:11.945Z,5.30
2023-04-12T10:09:14.567Z,5.53
2023-04-12T10:10:18.549Z,5.47
2023-04-12T10:11:20.777Z,5.38
2023-04-12T10:12:23.119Z,5.47
2023-04-12T10:13:27.276Z,5.32
2023-04-12T10:14:30.824Z,5.03
2023-04-12T10:15:34.775Z,5.05
2023-04-12T10:16:40.403Z,5.47
2023-04-12T10:17:45.425Z,5.22
2023-04-12T10:18:47.997Z,4.88
2023-04-12T10:19:52.513Z,5.50
2023-04-12T10:20:55.434Z,5.25
2023-04-12T10:21:59.519Z,5.38
2023-04-12T10:23:01.678Z,5.65
2023-04-12T10:24:06.608Z,5.47
2023-04-12T10:25:13.098Z,5.70
2023-04-12T10:26:16.917Z,5.07
2023-04-12T10:27:26.427Z,5.18
2023-04-12T10:29:05.687Z,5.57
2023-04-12T10:30:22.582Z,6.15
2023-04-12T10:31:32.495Z,5.00
2023-04-12T10:32:35.534Z,6.03
2023-04-12T10:33:38.689Z,6.97
2023-04-12T10:34:43.058Z,6.70
2023-04-12T10:35:54.672Z,6.60
2023-04-12T10:37:00.011Z,6.40
2023-04-12T10:38:04.334Z,6.00
2023-04-12T10:39:10.563Z,5.55
2023-04-12T10:40:17.432Z,5.95
2023-04-12T10:41:20.869Z,5.88
2023-04-12T10:42:25.372Z,6.07
2023-04-12T10:43:28.575Z,5.63
2023-04-12T10:44:30.868Z,5.50
2023-04-12T10:45:37.340Z,5.35
2023-04-12T10:46:49.835Z,5.97
2023-04-12T10:48:00.427Z,4.45
2023-04-12T10:49:08.516Z,4.55
2023-04-12T10:50:24.599Z,4.53
2023-04-12T10:51:28.175Z,4.45
2023-04-12T10:52:31.820Z,4.43
2023-04-12T10:53:34.131Z,4.68
2023-04-12T10:54:36.959Z,4.90
2023-04-12T10:55:39.255Z,5.22
2023-04-12T10:56:43.353Z,4.88
2023-04-12T10:57:47.858Z,5.32
2023-04-12T10:58:58.666Z,5.32
2023-04-12T11:00:02.697Z,4.95
2023-04-12T11:01:11.316Z,4.95
2023-04-12T11:02:14.314Z,4.78
2023-04-12T11:03:18.136Z,5.70
2023-04-12T11:04:21.971Z,4.85
2023-04-12T11:05:24.737Z,5.00
2023-04-12T11:06:41.846Z,4.40
2023-04-12T11:07:46.240Z,4.82
2023-04-12T11:08:49.062Z,5.05
2023-04-12T11:09:57.294Z,4.82
2023-04-12T11:11:03.988Z,5.13
2023-04-12T11:12:13.917Z,5.38
2023-04-12T11:13:17.061Z,5.22
2023-04-12T11:14:27.524Z,5.13
2023-04-12T11:15:34.291Z,4.78
2023-04-12T11:17:17.977Z,4.90
2023-04-12T11:18:20.688Z,5.07
2023-04-12T11:19:24.041Z,5.20
2023-04-12T11:20:30.865Z,6.15
2023-04-12T11:21:33.638Z,6.07
2023-04-12T11:22:36.283Z,6.05
2023-04-12T11:23:41.249Z,6.13
2023-04-12T11:24:44.710Z,5.90
2023-04-12T11:25:51.174Z,6.07
2023-04-12T11:26:53.958Z,5.32
2023-04-12T11:27:56.867Z,5.50
2023-04-12T11:28:59.460Z,5.75
2023-04-12T11:30:02.218Z,5.47
2023-04-12T11:31:06.579Z,5.43
2023-04-12T11:32:15.211Z,5.85
2023-04-12T11:33:32.421Z,5.10
2023-04-12T11:34:37.378Z,4.88
2023-04-12T11:35:44.797Z,5.25
2023-04-12T11:36:48.093Z,5.00
2023-04-12T11:37:50.511Z,5.43
2023-04-12T11:38:57.026Z,5.07
2023-04-12T11:40:05.659Z,5.20
2023-04-12T11:41:09.571Z,4.78
2023-04-12T11:42:17.104Z,5.53
2023-04-12T11:43:19.990Z,5.35
2023-04-12T11:44:22.972Z,5.57
2023-04-12T11:45:25.488Z,5.68
2023-04-12T11:46:33.961Z,5.20
2023-04-12T11:47:36.744Z,5.45
2023-04-12T11:48:39.254Z,5.43
2023-04-12T11:50:49.965Z,5.20
2023-04-12T11:52:04.180Z,5.13
2023-04-12T11:53:12.888Z,4.80
2023-04-12T11:54:16.579Z,5.78
2023-04-12T11:55:18.802Z,6.47
2023-04-12T11:56:22.319Z,6.05
2023-04-12T11:57:24.980Z,5.32
2023-04-12T11:58:28.290Z,5.30
2023-04-12T11:59:34.034Z,5.82
2023-04-12T12:00:36.962Z,5.40
2023-04-12T12:01:39.366Z,5.20
2023-04-12T12:02:52.206Z,5.90
2023-04-12T12:04:00.011Z,4.95
2023-04-12T12:05:03.586Z,5.32
2023-04-12T12:06:08.013Z,5.05
2023-04-12T12:07:13.289Z,5.15
2023-04-12T12:08:16.066Z,5.10
2023-04-12T12:09:19.756Z,4.80
2023-04-12T12:10:37.830Z,4.78
2023-04-12T12:11:44.323Z,5.25
2023-04-12T12:12:48.219Z,4.93
2023-04-12T12:13:52.814Z,4.85
2023-04-12T12:15:00.622Z,5.15
2023-04-12T12:16:06.902Z,5.40
2023-04-12T12:17:13.713Z,5.22
2023-04-12T12:18:16.156Z,4.82
2023-04-12T12:19:27.368Z,4.95
2023-04-12T12:20:29.658Z,4.57
2023-04-12T12:21:31.978Z,4.88
2023-04-12T12:22:34.903Z,5.47
2023-04-12T12:23:37.300Z,4.97
2023-04-12T12:24:46.690Z,4.90
2023-04-12T12:25:48.931Z,4.47
2023-04-12T12:26:51.229Z,5.00
2023-04-12T12:27:57.835Z,4.88
2023-04-12T12:29:03.459Z,4.55
2023-04-12T12:30:08.216Z,5.20
2023-04-12T12:31:12.610Z,4.97
2023-04-12T12:32:15.042Z,4.78
2023-04-12T12:34:23.793Z,4.75
2023-04-12T12:35:27.407Z,4.70
2023-04-12T12:36:32.379Z,4.50
2023-04-12T12:37:34.942Z,4.93
2023-04-12T12:38:37.856Z,4.10
2023-04-12T12:40:01.161Z,4.72
2023-04-12T12:41:16.482Z,4.75
2023-04-12T12:42:18.849Z,4.72
2023-04-12T12:43:21.393Z,4.78
2023-04-12T12:44:24.021Z,5.13
2023-04-12T12:45:27.643Z,4.97
2023-04-12T12:46:44.724Z,5.22
2023-04-12T12:47:54.899Z,5.57
2023-04-12T12:48:57.642Z,5.32
2023-04-12T12:49:59.857Z,4.97
2023-04-12T12:51:02.199Z,4.20
2023-04-12T12:52:04.521Z,4.50
2023-04-12T12:53:06.868Z,4.55
2023-04-12T12:54:09.153Z,4.60
2023-04-12T12:55:12.956Z,5.10
2023-04-12T12:56:16.211Z,4.90
2023-04-12T12:57:18.482Z,4.75
2023-04-12T12:58:20.701Z,4.78
2023-04-12T12:59:24.719Z,5.00
2023-04-12T13:00:29.499Z,4.90
2023-04-12T13:01:31.937Z,4.93
2023-04-12T13:02:34.551Z,4.72
2023-04-12T13:03:37.225Z,4.93
2023-04-12T13:04:39.619Z,4.95
2023-04-12T13:05:41.985Z,4.75
2023-04-12T13:06:44.194Z,5.40
2023-04-12T13:07:46.873Z,5.28
2023-04-12T13:08:49.071Z,6.18
2023-04-12T13:09:51.762Z,5.20
2023-04-12T13:10:55.883Z,4.63
2023-04-12T13:11:58.342Z,4.97
2023-04-12T13:13:01.789Z,5.53
2023-04-12T13:14:04.034Z,5.53
2023-04-12T13:15:21.076Z,4.50
2023-04-12T13:16:26.909Z,4.55
2023-04-12T13:17:30.489Z,4.45
2023-04-12T13:18:32.771Z,4.40
2023-04-12T13:19:35.059Z,4.55
2023-04-12T13:20:37.280Z,4.70
2023-04-12T13:21:39.489Z,4.75
2023-04-12T13:22:41.739Z,5.68
2023-04-12T13:23:43.989Z,5.22
2023-04-12T13:24:46.287Z,5.78
2023-04-12T13:25:48.609Z,4.30
2023-04-12T13:26:52.456Z,4.60
2023-04-12T13:27:54.702Z,4.32
2023-04-12T13:28:57.396Z,5.43
2023-04-12T13:30:00.399Z,5.72
2023-04-12T13:31:03.532Z,5.22
2023-04-12T13:32:06.095Z,4.63
2023-04-12T13:33:09.230Z,4.30
2023-04-12T13:34:11.574Z,4.25
2023-04-12T13:35:13.986Z,4.32
2023-04-12T13:36:16.298Z,4.20
2023-04-12T13:37:18.473Z,4.15
2023-04-12T13:38:21.032Z,4.05
2023-04-12T13:39:23.358Z,4.60
2023-04-12T13:40:25.710Z,4.15
2023-04-12T13:41:28.063Z,4.15
2023-04-12T13:42:31.871Z,4.72
2023-04-12T13:43:34.122Z,4.75
2023-04-12T13:44:36.818Z,4.20
2023-04-12T13:45:39.199Z,4.93
2023-04-12T13:46:42.003Z,4.13
2023-04-12T13:47:44.236Z,4.30
2023-04-12T13:48:46.538Z,4.30
2023-04-12T13:49:49.054Z,4.32
2023-04-12T13:50:52.395Z,4.88
2023-04-12T13:51:56.792Z,4.63
2023-04-12T13:52:59.007Z,4.28
2023-04-12T13:54:01.263Z,4.82
2023-04-12T13:55:08.157Z,4.35
2023-04-12T13:56:11.887Z,4.50
2023-04-12T13:57:14.453Z,4.45
2023-04-12T13:58:18.980Z,3.85
2023-04-12T13:59:21.336Z,3.65
2023-04-12T14:00:23.618Z,4.50
2023-04-12T14:01:26.102Z,3.95
2023-04-12T14:02:31.243Z,4.38
2023-04-12T14:03:33.856Z,4.38
2023-04-12T14:04:36.367Z,5.10
2023-04-12T14:05:38.663Z,4.80
2023-04-12T14:06:40.958Z,4.65
2023-04-12T14:07:43.314Z,5.25
2023-04-12T14:08:47.805Z,5.30
2023-04-12T14:09:50.565Z,3.90
2023-04-12T14:10:52.778Z,4.50
2023-04-12T14:11:56.518Z,4.63
2023-04-12T14:12:58.784Z,4.47
2023-04-12T14:14:02.443Z,5.07
2023-04-12T14:15:05.964Z,5.50
2023-04-12T14:16:08.588Z,5.55